KMOR

Moore-Murrell Airport

Morristown, Tennessee, USA
METAR KMOR 142355Z AUTO 08007G12KT 10SM FEW055 BKN085 10/08 A2995 RMK A01
Observed Flight Rules
Dec-14 @ 23:55 UTC (18 minutes ago) Visual Flight Rules
Wind Visibility Clouds
80° at 7 knots
 Gusting to 12 knots
10 miles
  • Few at 5,500' AGL
  • Broken at 8,500' AGL
Temperatures Readings
Current 10°C / 50°F
Dewpoint 8°C / 46°F
Humidity 88%
Altimeter 29.95" Hg
Pressure 1014 hPa
Elevation 400
METAR KMOR 142355Z AUTO 08007G12KT 10SM FEW055 BKN085 10/08 A2995 RMK A01
Observed Flight Rules
Dec-14 @ 23:55 UTC
(18 minutes ago)
VFR
Wind Visibility
80° at 7 knots
 Gusting to 12 knots
10 miles
Clouds
  • Few at 5,500' AGL
  • Broken at 8,500' AGL
Temperature Dewpoint
10°C / 50°F 8°C / 46°F
Humidity Altimeter Pressure
88% 29.95" Hg 1014 hPa